Language: 


Des rapports , des résumés tant et plus, au choix de chacun....


Données statistiques de la station
Quotidien Rapport Septembre 14, 2017 Unités:  Anglais    Métrique   les deux
« Précédent Jour
Suivant Jour »
Quotidien Hebdomadaire Mensuel Annuel Actuel
  Haut: Bas: Moyen:
Température: 63 °F 32 °F 55.4 °F
Pt de rosée: 53.6 °F 48.2 °F 51.4 °F
Humidité: 98 % 0 % 85 %
Vitesse du vent: 19.7 mph 0 mph 6.5 mph
Rafales: 23.7 mph - -
Vent:- - WSW
Pression: 29.9 in 29.5 in -
Précipitation: 0.34 in    
Historical Graphs
 
 
Données statistiques pour Septembre 14, 2017
Heure Température Point de rosée Pression Vent Vitesse du vent Refales Humidité Pluie (taux horaire)
00:01 54.7 °F 51.8 °F 29.6 in Calm   4.3 mph 88 % 0 in
00:06 54.7 °F 51.8 °F 29.6 in WSW 5.6 mph 6.5 mph 88 % 0 in
00:11 54.7 °F 51.8 °F 29.6 in West 8.9 mph 10.1 mph 88 % 0 in
00:16 55 °F 53.6 °F 29.6 in SW 5.8 mph 10.1 mph 89 % 0 in
00:21 54.9 °F 51.8 °F 29.6 in WSW 5.6 mph 8.9 mph 89 % 0 in
00:26 54.7 °F 51.8 °F 29.6 in WSW 4.9 mph 6.5 mph 89 % 0 in
00:31 54.5 °F 51.8 °F 29.6 in WSW 4.7 mph 6.5 mph 89 % 0 in
00:33 54.5 °F 51.8 °F 29.6 in WSW 3.1 mph 7.4 mph 89 % 0 in
00:38 54.3 °F 51.8 °F 29.6 in WSW 6 mph 7.4 mph 89 % 0 in
00:43 54.1 °F 51.8 °F 29.6 in Calm   6.5 mph 89 % 0 in
00:48 54 °F 51.8 °F 29.6 in Calm   6 mph 89 % 0 in
00:53 54 °F 51.8 °F 29.6 in Calm   4.3 mph 89 % 0 in
00:58 54 °F 51.8 °F 29.6 in Calm   4.3 mph 89 % 0 in
01:03 54 °F 51.8 °F 29.6 in Calm   3.8 mph 90 % 0 in
01:08 54.1 °F 51.8 °F 29.6 in Calm   2.2 mph 91 % 0 in
01:13 54.3 °F 51.8 °F 29.6 in SW 5.8 mph 5.8 mph 91 % 0 in
01:18 54.5 °F 53.6 °F 29.6 in WSW 6.7 mph 6.7 mph 91 % 0 in
01:23 54.5 °F 53.6 °F 29.6 in SSW 4.7 mph 9.6 mph 92 % 0.01 in
01:28 54.3 °F 53.6 °F 29.6 in SW 2.7 mph 9.6 mph 93 % 0.01 in
01:33 54.3 °F 53.6 °F 29.6 in SSW 3.8 mph 7.2 mph 93 % 0.01 in
01:38 54.1 °F 53.6 °F 29.6 in Calm   4.5 mph 94 % 0.01 in
01:43 54 °F 51.8 °F 29.6 in Calm   5.8 mph 94 % 0.01 in
01:48 54 °F 51.8 °F 29.6 in SSW 2.5 mph 5.8 mph 94 % 0.01 in
01:58 53.8 °F 53.6 °F 29.6 in Calm   6.5 mph 95 % 0.01 in
02:03 53.8 °F 53.6 °F 29.6 in Calm   6.5 mph 95 % 0.03 in
02:09 53.6 °F 53.6 °F 29.6 in SSW 5.6 mph 7.4 mph 95 % 0.03 in
02:14 53.6 °F 53.6 °F 29.6 in WSW 6.5 mph 7.4 mph 96 % 0.03 in
02:19 53.6 °F 53.6 °F 29.6 in SW 8.7 mph 10.5 mph 96 % 0.05 in
02:24 53.4 °F 53.6 °F 29.6 in WSW 4.9 mph 10.5 mph 96 % 0.04 in
02:29 53.4 °F 53.6 °F 29.6 in West 4 mph 6 mph 97 % 0.06 in
02:34 53.4 °F 53.6 °F 29.6 in West 2.7 mph 5.8 mph 97 % 0.1 in
02:39 53.2 °F 51.8 °F 29.6 in Calm   4.9 mph 97 % 0.12 in
02:44 53.1 °F 51.8 °F 29.6 in West 3.8 mph 5.4 mph 97 % 0.13 in
02:49 53.1 °F 51.8 °F 29.6 in WSW 4.7 mph 6.5 mph 97 % 0.15 in
02:54 53.1 °F 51.8 °F 29.6 in Calm   6.5 mph 97 % 0.16 in
02:59 53.1 °F 53.6 °F 29.6 in Calm   6 mph 98 % 0.17 in
03:04 32 °F 53.6 °F 29.6 in Calm   6 mph 0 % 0.17 in
03:09 52.7 °F 51.8 °F 29.6 in Calm     97 % 0.16 in
03:14 52.5 °F 51.8 °F 29.6 in Calm     97 % 0.16 in
03:19 52.5 °F 51.8 °F 29.6 in Calm   1.3 mph 97 % 0.15 in
03:24 52.3 °F 51.8 °F 29.6 in Calm   1.6 mph 97 % 0.15 in
03:29 52.2 °F 51.8 °F 29.6 in Calm   1.6 mph 97 % 0.12 in
03:34 52.2 °F 51.8 °F 29.6 in Calm   0.9 mph 97 % 0.08 in
03:39 52.2 °F 51.8 °F 29.6 in Calm   0.9 mph 97 % 0.06 in
03:44 52 °F 51.8 °F 29.6 in Calm   0.9 mph 98 % 0.05 in
03:49 52 °F 51.8 °F 29.6 in Calm     98 % 0.03 in
03:54 52 °F 51.8 °F 29.6 in Calm   2.2 mph 98 % 0.01 in
03:59 52 °F 51.8 °F 29.6 in Calm   3.6 mph 98 % 0.01 in
04:04 52 °F 51.8 °F 29.6 in Calm   3.6 mph 98 % 0.01 in
04:09 52 °F 51.8 °F 29.6 in Calm   6.5 mph 98 % 0.01 in
04:14 52.2 °F 51.8 °F 29.6 in Calm   6.5 mph 98 % 0 in
04:19 52.2 °F 51.8 °F 29.6 in SW 3.6 mph 7.6 mph 98 % 0 in
04:25 52.2 °F 51.8 °F 29.6 in WSW 5.8 mph 7.6 mph 98 % 0 in
04:30 52 °F 51.8 °F 29.5 in Calm   5.8 mph 98 % 0 in
04:35 52 °F 51.8 °F 29.5 in SW 6 mph 6 mph 98 % 0 in
04:40 52 °F 51.8 °F 29.5 in SSW 7.8 mph 7.8 mph 98 % 0 in
04:45 52 °F 51.8 °F 29.6 in SSW 6 mph 7.8 mph 98 % 0.01 in
04:50 52 °F 51.8 °F 29.6 in SW 6.5 mph 7.8 mph 98 % 0.01 in
04:55 51.8 °F 51.8 °F 29.6 in SSW 4.9 mph 10.3 mph 98 % 0.01 in
05:00 51.8 °F 51.8 °F 29.6 in SSE 4.9 mph 10.3 mph 98 % 0.01 in
05:05 51.8 °F 51.8 °F 29.6 in SSW 4.5 mph 8.7 mph 98 % 0.01 in
05:11 51.8 °F 51.8 °F 29.6 in SSW 3.4 mph 8.7 mph 98 % 0.02 in
05:17 51.8 °F 51.8 °F 29.6 in SW 6 mph 7.4 mph 98 % 0.02 in
05:22 51.8 °F 51.8 °F 29.6 in SW 7.4 mph 7.4 mph 98 % 0.02 in
05:23 51.8 °F 51.8 °F 29.6 in SSW 4.9 mph 7.4 mph 98 % 0.02 in
05:25 51.8 °F 51.8 °F 29.6 in SSW 6.5 mph 7.4 mph 98 % 0.02 in
05:28 51.8 °F 51.8 °F 29.6 in SSW 9.6 mph 9.6 mph 98 % 0.02 in
05:33 51.6 °F 51.8 °F 29.5 in SW 6.5 mph 9.6 mph 98 % 0.02 in
05:37 51.6 °F 51.8 °F 29.5 in WSW 7.8 mph 8.1 mph 98 % 0.02 in
05:42 51.4 °F 51.8 °F 29.5 in SSW 2.9 mph 8.9 mph 98 % 0.01 in
05:48 51.4 °F 51.8 °F 29.6 in SW 4 mph 8.9 mph 98 % 0.01 in
05:53 51.4 °F 51.8 °F 29.6 in SW 2.2 mph 7.8 mph 98 % 0.01 in
05:58 51.4 °F 51.8 °F 29.6 in SSW 5.8 mph 10.1 mph 98 % 0.01 in
06:03 51.4 °F 51.8 °F 29.6 in WSW 4.3 mph 10.1 mph 98 % 0.01 in
06:08 51.3 °F 51.8 °F 29.6 in SSW 5.6 mph 9.2 mph 98 % 0.01 in
06:13 51.3 °F 51.8 °F 29.6 in WSW 7.4 mph 8.1 mph 98 % 0 in
06:18 51.4 °F 51.8 °F 29.6 in SW 4.3 mph 8.7 mph 98 % 0 in
06:23 51.4 °F 51.8 °F 29.6 in SSW 4.9 mph 8.7 mph 98 % 0 in
06:28 51.4 °F 51.8 °F 29.6 in SW 5.6 mph 6.7 mph 98 % 0 in
06:33 51.4 °F 51.8 °F 29.6 in SW 3.6 mph 6.7 mph 98 % 0 in
06:38 51.4 °F 51.8 °F 29.6 in WSW 4.3 mph 7.2 mph 98 % 0.02 in
06:43 51.3 °F 51.8 °F 29.6 in WSW 3.6 mph 7.2 mph 98 % 0.02 in
06:48 51.1 °F 51.8 °F 29.5 in Calm   6.5 mph 98 % 0.02 in
06:53 50.9 °F 51.8 °F 29.5 in West 4.7 mph 6.5 mph 98 % 0.02 in
06:58 50.7 °F 50 °F 29.5 in WSW 3.6 mph 5.8 mph 98 % 0.02 in
07:03 50.7 °F 50 °F 29.6 in WSW 5.8 mph 7.2 mph 98 % 0.02 in
07:08 50.5 °F 50 °F 29.6 in WSW 6 mph 7.2 mph 98 % 0.02 in
07:13 50.4 °F 50 °F 29.6 in WSW 9.2 mph 9.2 mph 98 % 0.02 in
07:18 50.4 °F 50 °F 29.6 in West 6 mph 9.2 mph 98 % 0.02 in
07:23 50.2 °F 50 °F 29.6 in WSW 5.8 mph 9.2 mph 98 % 0.02 in
07:28 50.2 °F 50 °F 29.6 in WSW 5.6 mph 6.3 mph 98 % 0.02 in
07:33 50 °F 50 °F 29.6 in WSW 5.4 mph 7.4 mph 98 % 0.01 in
07:38 50 °F 50 °F 29.6 in WSW 6 mph 7.4 mph 98 % 0 in
07:43 50 °F 50 °F 29.6 in WSW 6.3 mph 7.2 mph 98 % 0 in
07:48 50 °F 50 °F 29.6 in SW 5.6 mph 8.1 mph 98 % 0 in
07:54 50 °F 50 °F 29.6 in SW 5.8 mph 8.1 mph 98 % 0 in
07:59 50 °F 50 °F 29.6 in WSW 5.4 mph 7.8 mph 98 % 0 in
08:04 50 °F 50 °F 29.6 in West 6 mph 7.6 mph 98 % 0 in
08:09 50.2 °F 50 °F 29.6 in WSW 1.1 mph 6.5 mph 98 % 0 in
08:14 50.4 °F 50 °F 29.6 in WSW 6 mph 7.4 mph 98 % 0 in
08:19 50.4 °F 50 °F 29.6 in WSW 7.4 mph 8.7 mph 98 % 0 in
08:20 50.7 °F 50 °F 29.6 in SSW 6.5 mph 8.7 mph 98 % 0 in
08:25 50.9 °F 51.8 °F 29.6 in WSW 7.2 mph 8.7 mph 98 % 0 in
08:30 51.1 °F 51.8 °F 29.6 in WSW 8.9 mph 8.9 mph 98 % 0 in
08:35 51.4 °F 51.8 °F 29.6 in WSW 6 mph 8.9 mph 98 % 0 in
08:40 51.6 °F 51.8 °F 29.6 in West 6 mph 8.9 mph 98 % 0 in
08:45 51.8 °F 51.8 °F 29.6 in WSW 8.7 mph 9.4 mph 98 % 0 in
08:50 51.8 °F 51.8 °F 29.6 in SW 7.4 mph 9.6 mph 98 % 0 in
08:55 52.3 °F 51.8 °F 29.6 in West 7.6 mph 9.6 mph 98 % 0 in
09:00 52.5 °F 51.8 °F 29.6 in West 8.7 mph 9.8 mph 97 % 0 in
09:05 52.5 °F 51.8 °F 29.6 in West 7.6 mph 9.8 mph 97 % 0 in
09:10 52.9 °F 51.8 °F 29.6 in WSW 6.3 mph 8.7 mph 97 % 0 in
09:15 53.2 °F 51.8 °F 29.6 in West 9.8 mph 10.5 mph 96 % 0 in
09:20 53.4 °F 51.8 °F 29.6 in WSW 5.4 mph 13.4 mph 95 % 0 in
09:25 53.8 °F 51.8 °F 29.6 in WNW 7.2 mph 13.4 mph 94 % 0 in
09:30 53.8 °F 51.8 °F 29.6 in WSW 7.8 mph 12.5 mph 94 % 0 in
09:35 54 °F 51.8 °F 29.6 in West 12.5 mph 12.5 mph 93 % 0 in
09:40 54.3 °F 53.6 °F 29.6 in WSW 6.3 mph 12.5 mph 93 % 0 in
09:45 54.5 °F 53.6 °F 29.6 in West 7.2 mph 11.2 mph 93 % 0 in
09:50 54.7 °F 53.6 °F 29.6 in West 6 mph 13.2 mph 92 % 0 in
09:55 54.9 °F 53.6 °F 29.6 in West 12.8 mph 13.2 mph 92 % 0 in
10:00 55.2 °F 53.6 °F 29.6 in West 8.7 mph 12.8 mph 92 % 0 in
10:05 55.2 °F 53.6 °F 29.6 in WSW 10.3 mph 12.8 mph 92 % 0 in
10:10 55.4 °F 53.6 °F 29.6 in West 10.7 mph 12.3 mph 91 % 0 in
10:15 55.2 °F 53.6 °F 29.6 in West 10.1 mph 12.3 mph 90 % 0 in
10:20 55.6 °F 53.6 °F 29.6 in WSW 4.9 mph 11 mph 90 % 0 in
10:25 55.8 °F 53.6 °F 29.6 in West 12.5 mph 12.8 mph 89 % 0 in
10:30 55.8 °F 53.6 °F 29.6 in West 7.6 mph 12.8 mph 89 % 0 in
10:36 55.9 °F 53.6 °F 29.6 in West 7.8 mph 12.5 mph 89 % 0 in
10:41 56.3 °F 53.6 °F 29.6 in West 11.4 mph 12.5 mph 87 % 0 in
10:46 56.3 °F 53.6 °F 29.7 in WSW 13 mph 13 mph 87 % 0 in
10:51 57 °F 53.6 °F 29.7 in West 15.4 mph 15.4 mph 85 % 0 in
10:56 57.4 °F 53.6 °F 29.7 in WSW 12.3 mph 15.4 mph 84 % 0 in
11:01 57.4 °F 53.6 °F 29.7 in West 7.6 mph 14.8 mph 84 % 0 in
11:06 57.4 °F 53.6 °F 29.7 in WSW 11 mph 14.8 mph 84 % 0 in
11:11 57.4 °F 51.8 °F 29.7 in West 11.9 mph 13 mph 81 % 0 in
11:16 58.3 °F 53.6 °F 29.7 in West 8.5 mph 14.1 mph 80 % 0 in
11:21 58.3 °F 53.6 °F 29.7 in West 13 mph 17.2 mph 80 % 0 in
11:26 58.3 °F 51.8 °F 29.7 in West 4.3 mph 17.2 mph 78 % 0 in
11:31 59.4 °F 53.6 °F 29.7 in WSW 10.1 mph 13 mph 80 % 0 in
11:36 59.5 °F 51.8 °F 29.7 in West 17.4 mph 19.5 mph 74 % 0 in
11:41 58.6 °F 50 °F 29.7 in West 15.7 mph 19.5 mph 73 % 0 in
11:46 59 °F 51.8 °F 29.7 in West 18.1 mph 18.1 mph 74 % 0 in
11:51 58.6 °F 50 °F 29.7 in West 7.6 mph 18.1 mph 73 % 0 in
11:56 58.6 °F 50 °F 29.7 in West 10.1 mph 17.4 mph 73 % 0 in
12:01 58.6 °F 50 °F 29.7 in West 14.8 mph 17.4 mph 73 % 0 in
12:06 60.3 °F 50 °F 29.7 in West 7.6 mph 20.8 mph 69 % 0 in
12:11 60.1 °F 50 °F 29.7 in West 10.3 mph 20.8 mph 68 % 0 in
12:16 58.8 °F 48.2 °F 29.7 in West 7.8 mph 17.4 mph 68 % 0 in
12:21 58.8 °F 48.2 °F 29.7 in West 4 mph 17.7 mph 68 % 0 in
12:26 58.8 °F 48.2 °F 29.7 in West 13 mph 17.7 mph 68 % 0 in
12:32 59.4 °F 50 °F 29.7 in West 12.8 mph 19.2 mph 68 % 0 in
12:37 59.2 °F 48.2 °F 29.7 in WSW 15.4 mph 19.5 mph 68 % 0 in
12:42 59.2 °F 50 °F 29.7 in West 10.3 mph 19.5 mph 70 % 0 in
12:47 58.8 °F 50 °F 29.7 in SW 15.4 mph 17.4 mph 71 % 0 in
12:52 58.8 °F 50 °F 29.7 in WNW 19.7 mph 19.7 mph 71 % 0 in
12:57 57.6 °F 50 °F 29.7 in West 12.8 mph 23.7 mph 74 % 0 in
13:02 57.6 °F 50 °F 29.7 in West 8.9 mph 23.7 mph 74 % 0 in
13:07 58.1 °F 51.8 °F 29.7 in West 11.9 mph 15.2 mph 75 % 0 in
13:12 58.3 °F 51.8 °F 29.7 in WSW 13.2 mph 13.2 mph 75 % 0 in
13:17 58.5 °F 51.8 °F 29.7 in WNW 8.1 mph 13.2 mph 76 % 0 in
13:22 58.6 °F 51.8 °F 29.7 in West 12.8 mph 16.8 mph 77 % 0 in
13:27 58.6 °F 51.8 °F 29.7 in West 10.3 mph 16.8 mph 76 % 0 in
13:32 58.6 °F 51.8 °F 29.7 in West 10.3 mph 14.3 mph 76 % 0 in
13:37 58.6 °F 51.8 °F 29.7 in WNW 8.5 mph 16.8 mph 76 % 0 in
13:42 58.8 °F 51.8 °F 29.7 in West 5.8 mph 20.1 mph 75 % 0 in
13:47 59.2 °F 51.8 °F 29.7 in WNW 17.7 mph 20.1 mph 77 % 0 in
13:52 58.6 °F 51.8 °F 29.7 in WSW 10.5 mph 23.5 mph 77 % 0 in
13:57 57.9 °F 51.8 °F 29.7 in West 12.3 mph 23.5 mph 78 % 0 in
14:02 57.6 °F 51.8 °F 29.7 in WSW 16.8 mph 16.8 mph 79 % 0 in
14:07 57.6 °F 51.8 °F 29.7 in WNW 17 mph 17.4 mph 79 % 0 in
14:12 57.7 °F 50 °F 29.7 in WNW 15.2 mph 17.4 mph 76 % 0 in
14:17 57.7 °F 51.8 °F 29.8 in WSW 12.5 mph 17 mph 77 % 0 in
14:22 57.6 °F 51.8 °F 29.8 in West 12.8 mph 17.2 mph 77 % 0 in
14:28 57.6 °F 50 °F 29.8 in WSW 10.1 mph 17.2 mph 75 % 0 in
14:33 57.9 °F 51.8 °F 29.8 in West 11.9 mph 17 mph 77 % 0 in
14:38 57.9 °F 51.8 °F 29.8 in WSW 19 mph 19 mph 77 % 0 in
14:43 57.9 °F 51.8 °F 29.8 in West 12.3 mph 20.1 mph 77 % 0 in
14:48 58.3 °F 51.8 °F 29.8 in West 10.3 mph 20.1 mph 77 % 0 in
14:53 58.3 °F 51.8 °F 29.8 in WSW 7.6 mph 16.8 mph 77 % 0 in
14:54 58.3 °F 51.8 °F 29.8 in WSW 7.6 mph 16.8 mph 77 % 0 in
14:59 59 °F 51.8 °F 29.8 in WNW 13 mph 19.5 mph 74 % 0 in
15:04 58.8 °F 51.8 °F 29.8 in West 14.3 mph 19.5 mph 74 % 0 in
15:09 58.8 °F 50 °F 29.8 in West 10.1 mph 19.2 mph 73 % 0 in
15:14 58.8 °F 50 °F 29.8 in West 13 mph 19.2 mph 73 % 0 in
15:19 59 °F 50 °F 29.8 in West 17.4 mph 19.9 mph 73 % 0 in
15:24 59.2 °F 51.8 °F 29.8 in West 14.8 mph 19.9 mph 74 % 0 in
15:29 59.2 °F 51.8 °F 29.8 in WSW 14.1 mph 17.4 mph 74 % 0 in
15:34 59.2 °F 50 °F 29.8 in West 9.4 mph 17.4 mph 73 % 0 in
15:39 59.2 °F 50 °F 29.8 in West 9.4 mph 17 mph 73 % 0 in
15:44 59.9 °F 51.8 °F 29.8 in West 11 mph 17 mph 73 % 0 in
15:49 60.3 °F 53.6 °F 29.8 in West 10.1 mph 15.2 mph 75 % 0 in
15:54 60.4 °F 51.8 °F 29.8 in WSW 7.8 mph 17.7 mph 74 % 0 in
15:59 60.4 °F 51.8 °F 29.8 in West 8.5 mph 17.7 mph 74 % 0 in
16:04 60.4 °F 51.8 °F 29.8 in West 9.8 mph 17.7 mph 74 % 0 in
16:09 60.4 °F 51.8 °F 29.8 in West 12.3 mph 22.4 mph 74 % 0 in
16:14 60.3 °F 50 °F 29.8 in West 8.1 mph 22.4 mph 70 % 0 in
16:19 60.1 °F 51.8 °F 29.8 in WNW 15.2 mph 17.7 mph 71 % 0 in
16:24 60.4 °F 51.8 °F 29.8 in West 3.4 mph 17.7 mph 71 % 0 in
16:29 60.4 °F 51.8 °F 29.8 in West 9.8 mph 15.9 mph 71 % 0 in
16:34 60.4 °F 50 °F 29.8 in West 7.8 mph 15.4 mph 70 % 0 in
16:39 60.6 °F 51.8 °F 29.8 in West 4.3 mph 13.2 mph 70 % 0 in
16:44 60.6 °F 50 °F 29.8 in West 10.3 mph 16.1 mph 68 % 0 in
16:49 60.6 °F 50 °F 29.8 in West 8.7 mph 16.1 mph 68 % 0 in
16:54 60.8 °F 50 °F 29.8 in WSW 12.3 mph 15.4 mph 68 % 0 in
16:59 61 °F 50 °F 29.8 in WSW 7.8 mph 15.4 mph 67 % 0 in
17:04 61.3 °F 51.8 °F 29.8 in NW 13.2 mph 13.9 mph 68 % 0 in
17:09 61.7 °F 51.8 °F 29.8 in West 14.5 mph 14.5 mph 67 % 0 in
17:14 61.9 °F 50 °F 29.8 in West 6.5 mph 14.5 mph 66 % 0 in
17:19 61.7 °F 50 °F 29.8 in WNW 7.2 mph 16.1 mph 65 % 0 in
17:24 61.5 °F 50 °F 29.8 in West 5.8 mph 16.1 mph 65 % 0 in
17:29 61.7 °F 50 °F 29.8 in WSW 8.5 mph 15.4 mph 65 % 0 in
17:34 61.9 °F 50 °F 29.8 in West 7.8 mph 13.2 mph 66 % 0 in
17:39 61.7 °F 50 °F 29.8 in WSW 12.5 mph 17.2 mph 64 % 0 in
17:44 62.6 °F 50 °F 29.8 in WSW 8.5 mph 17.2 mph 64 % 0 in
17:50 62.6 °F 50 °F 29.8 in West 9.8 mph 13.4 mph 64 % 0 in
17:55 62.1 °F 50 °F 29.8 in South 10.5 mph 12.8 mph 64 % 0 in
18:00 62.2 °F 50 °F 29.8 in WSW 10.3 mph 15.2 mph 63 % 0 in
18:05 63 °F 50 °F 29.8 in WSW 7.4 mph 15.2 mph 61 % 0 in
18:10 63 °F 50 °F 29.8 in West 13 mph 13.9 mph 61 % 0 in
18:15 62.1 °F 50 °F 29.8 in West 17.2 mph 17.2 mph 63 % 0 in
18:20 62.1 °F 50 °F 29.8 in West 12.8 mph 19.5 mph 63 % 0 in
18:25 62.2 °F 48.2 °F 29.8 in West 13 mph 19.5 mph 60 % 0 in
18:30 62.2 °F 48.2 °F 29.8 in West 10.7 mph 15.9 mph 60 % 0 in
18:35 62.1 °F 48.2 °F 29.8 in West 14.8 mph 15.4 mph 62 % 0 in
18:40 61.5 °F 50 °F 29.8 in West 11 mph 16.6 mph 64 % 0 in
18:45 61.5 °F 50 °F 29.8 in WSW 10.7 mph 16.6 mph 64 % 0 in
18:50 61.5 °F 50 °F 29.8 in West 9.8 mph 14.1 mph 64 % 0 in
18:55 61 °F 50 °F 29.8 in West 10.1 mph 14.1 mph 67 % 0 in
19:00 60.8 °F 50 °F 29.8 in West 7.6 mph 13.6 mph 68 % 0 in
19:05 60.6 °F 50 °F 29.8 in West 8.7 mph 12.8 mph 69 % 0 in
19:10 60.4 °F 50 °F 29.8 in WSW 9.6 mph 12.8 mph 70 % 0 in
19:15 60.4 °F 50 °F 29.9 in SSW 9.6 mph 12.8 mph 70 % 0 in
19:20 60.4 °F 50 °F 29.9 in West 7.6 mph 11.2 mph 70 % 0 in
19:25 59.5 °F 51.8 °F 29.9 in West 9.6 mph 11.2 mph 72 % 0 in
19:30 59.4 °F 51.8 °F 29.9 in West 5.4 mph 11 mph 72 % 0 in
19:35 59.2 °F 50 °F 29.9 in West 5.6 mph 8.7 mph 73 % 0 in
19:40 59.2 °F 50 °F 29.9 in West 4.9 mph 8.7 mph 73 % 0 in
19:45 59.2 °F 50 °F 29.9 in West 5.8 mph 7.6 mph 73 % 0 in
19:50 59.2 °F 50 °F 29.9 in West 5.6 mph 7.4 mph 73 % 0 in
19:56 58.1 °F 51.8 °F 29.9 in West 5.8 mph 6.9 mph 76 % 0 in
20:01 58.1 °F 51.8 °F 29.9 in West 3.6 mph 6.3 mph 76 % 0 in
20:06 57.6 °F 51.8 °F 29.9 in Calm   5.8 mph 77 % 0 in
20:11 57.4 °F 50 °F 29.9 in WSW 3.4 mph 4.7 mph 78 % 0 in
20:16 57.2 °F 51.8 °F 29.9 in Calm   3.6 mph 79 % 0 in
20:21 57.2 °F 51.8 °F 29.9 in WSW 4.7 mph 4.7 mph 79 % 0 in
20:26 57 °F 51.8 °F 29.9 in WSW 3.1 mph 6 mph 81 % 0 in
20:31 57 °F 51.8 °F 29.9 in Calm   6 mph 81 % 0 in
20:36 57 °F 51.8 °F 29.9 in Calm   5.6 mph 81 % 0 in
20:41 57 °F 51.8 °F 29.9 in West 4.9 mph 4.9 mph 81 % 0 in
20:46 57 °F 51.8 °F 29.9 in West 5.8 mph 5.8 mph 83 % 0 in
20:51 56.7 °F 53.6 °F 29.9 in SSW 3.4 mph 5.8 mph 85 % 0.02 in
20:56 56.1 °F 53.6 °F 29.9 in SSW 3.4 mph 3.4 mph 87 % 0.09 in
21:01 55.8 °F 53.6 °F 29.9 in NW 2.7 mph 3.4 mph 88 % 0.09 in
21:06 55.4 °F 51.8 °F 29.9 in Calm   2.7 mph 88 % 0.1 in
21:11 55.4 °F 51.8 °F 29.9 in West 3.6 mph 3.6 mph 88 % 0.1 in
21:16 54.9 °F 51.8 °F 29.9 in WNW 5.8 mph 5.8 mph 89 % 0.1 in
21:21 54.7 °F 51.8 °F 29.9 in West 1.6 mph 5.8 mph 90 % 0.1 in
21:26 54.7 °F 51.8 °F 29.9 in WSW 4 mph 5.8 mph 90 % 0.1 in
21:31 54.5 °F 53.6 °F 29.9 in Calm   4.9 mph 91 % 0.1 in
21:36 54.3 °F 51.8 °F 29.9 in Calm   3.6 mph 91 % 0.1 in
21:41 54.1 °F 51.8 °F 29.9 in Calm     92 % 0.1 in
21:46 54 °F 51.8 °F 29.9 in Calm     92 % 0.1 in
21:52 53.8 °F 51.8 °F 29.9 in Calm     92 % 0.06 in
21:57 53.8 °F 51.8 °F 29.9 in Calm     92 % 0.01 in
22:02 53.6 °F 51.8 °F 29.9 in Calm     93 % 0.01 in
22:07 53.6 °F 51.8 °F 29.9 in Calm     93 % 0 in
22:12 53.2 °F 51.8 °F 29.9 in Calm     94 % 0 in
22:17 53.1 °F 51.8 °F 29.9 in Calm     94 % 0 in
22:22 52.7 °F 51.8 °F 29.9 in Calm     93 % 0 in
22:27 52.3 °F 50 °F 29.9 in Calm     93 % 0 in
22:32 51.8 °F 50 °F 29.9 in Calm     93 % 0 in
22:37 51.6 °F 50 °F 29.9 in Calm     94 % 0 in
22:42 51.6 °F 50 °F 29.9 in Calm   0.9 mph 94 % 0 in
22:47 51.6 °F 50 °F 29.9 in Calm   0.9 mph 94 % 0 in
22:52 51.8 °F 50 °F 29.9 in West 3.1 mph 3.1 mph 95 % 0 in
22:57 51.8 °F 50 °F 29.9 in Calm   3.6 mph 95 % 0 in
23:02 52.2 °F 51.8 °F 29.9 in Calm   3.6 mph 95 % 0 in
23:07 52.3 °F 51.8 °F 29.9 in Calm     96 % 0 in
23:12 52.3 °F 51.8 °F 29.9 in Calm     96 % 0 in
23:17 52.5 °F 51.8 °F 29.9 in Calm   0.9 mph 96 % 0 in
23:22 52.3 °F 51.8 °F 29.9 in Calm   0.9 mph 96 % 0 in
23:27 52 °F 51.8 °F 29.9 in Calm     96 % 0 in
23:32 51.8 °F 51.8 °F 29.9 in Calm     96 % 0 in
23:38 51.8 °F 51.8 °F 29.9 in Calm     96 % 0 in
23:43 51.4 °F 50 °F 29.9 in Calm     96 % 0 in
23:48 51.4 °F 50 °F 29.9 in Calm     96 % 0 in
23:53 51.3 °F 50 °F 29.9 in Calm     96 % 0 in
23:58 51.1 °F 50 °F 29.9 in Calm     96 % 0 in
Le Gheer Warneton
Courtoisie de Weather Underground - 2.25 mb

Mise a jour : 17-12-17 09:08:12
Généré par Cumulus 1.9.4 (1099)